sensor_id;sensor_type;location;lat;lon;timestamp;P1;durP1;ratioP1;P2;durP2;ratioP2
18013;SDS011;9132;47.946;10.394;2023-02-28T00:00:05;6.57;;;3.60;;
18013;SDS011;9132;47.946;10.394;2023-02-28T00:02:35;7.23;;;3.53;;
18013;SDS011;9132;47.946;10.394;2023-02-28T00:05:01;4.83;;;3.97;;
18013;SDS011;9132;47.946;10.394;2023-02-28T00:07:28;4.70;;;4.07;;
18013;SDS011;9132;47.946;10.394;2023-02-28T00:09:55;4.27;;;3.53;;
18013;SDS011;9132;47.946;10.394;2023-02-28T00:12:22;6.37;;;3.53;;
18013;SDS011;9132;47.946;10.394;2023-02-28T00:14:48;4.67;;;3.50;;
18013;SDS011;9132;47.946;10.394;2023-02-28T00:17:14;4.63;;;3.67;;
18013;SDS011;9132;47.946;10.394;2023-02-28T00:19:42;5.97;;;3.67;;
18013;SDS011;9132;47.946;10.394;2023-02-28T00:22:09;5.50;;;3.33;;
18013;SDS011;9132;47.946;10.394;2023-02-28T00:24:35;4.50;;;3.40;;
18013;SDS011;9132;47.946;10.394;2023-02-28T00:27:03;5.40;;;3.20;;
18013;SDS011;9132;47.946;10.394;2023-02-28T00:29:29;4.47;;;3.17;;
18013;SDS011;9132;47.946;10.394;2023-02-28T00:31:55;5.37;;;3.67;;
18013;SDS011;9132;47.946;10.394;2023-02-28T00:34:21;5.37;;;3.37;;
18013;SDS011;9132;47.946;10.394;2023-02-28T00:36:48;3.70;;;3.30;;
18013;SDS011;9132;47.946;10.394;2023-02-28T00:39:14;3.53;;;3.17;;
18013;SDS011;9132;47.946;10.394;2023-02-28T00:41:41;4.93;;;3.50;;
18013;SDS011;9132;47.946;10.394;2023-02-28T00:44:08;4.30;;;3.33;;
18013;SDS011;9132;47.946;10.394;2023-02-28T00:46:35;4.53;;;3.07;;
18013;SDS011;9132;47.946;10.394;2023-02-28T00:49:01;4.67;;;3.40;;
18013;SDS011;9132;47.946;10.394;2023-02-28T00:51:27;3.80;;;2.87;;
18013;SDS011;9132;47.946;10.394;2023-02-28T00:53:54;3.70;;;3.10;;
18013;SDS011;9132;47.946;10.394;2023-02-28T00:56:20;4.10;;;2.87;;
18013;SDS011;9132;47.946;10.394;2023-02-28T00:58:46;4.83;;;2.87;;
18013;SDS011;9132;47.946;10.394;2023-02-28T01:01:14;4.80;;;2.97;;
18013;SDS011;9132;47.946;10.394;2023-02-28T01:03:40;3.67;;;3.20;;
18013;SDS011;9132;47.946;10.394;2023-02-28T01:06:07;3.37;;;3.00;;
18013;SDS011;9132;47.946;10.394;2023-02-28T01:08:33;3.90;;;3.07;;
18013;SDS011;9132;47.946;10.394;2023-02-28T01:11:06;4.03;;;2.83;;
18013;SDS011;9132;47.946;10.394;2023-02-28T01:13:32;4.20;;;2.70;;
18013;SDS011;9132;47.946;10.394;2023-02-28T01:15:59;3.40;;;2.97;;
18013;SDS011;9132;47.946;10.394;2023-02-28T01:18:26;7.47;;;5.20;;
18013;SDS011;9132;47.946;10.394;2023-02-28T01:20:53;7.33;;;4.17;;
18013;SDS011;9132;47.946;10.394;2023-02-28T01:23:20;4.23;;;3.50;;
18013;SDS011;9132;47.946;10.394;2023-02-28T01:25:46;5.97;;;3.83;;
18013;SDS011;9132;47.946;10.394;2023-02-28T01:28:13;4.70;;;3.50;;
18013;SDS011;9132;47.946;10.394;2023-02-28T01:30:39;5.57;;;3.80;;
18013;SDS011;9132;47.946;10.394;2023-02-28T01:33:05;7.87;;;4.10;;
18013;SDS011;9132;47.946;10.394;2023-02-28T01:35:33;7.50;;;5.33;;
18013;SDS011;9132;47.946;10.394;2023-02-28T01:38:00;6.43;;;3.83;;
18013;SDS011;9132;47.946;10.394;2023-02-28T01:40:26;6.73;;;4.60;;
18013;SDS011;9132;47.946;10.394;2023-02-28T01:42:52;5.40;;;3.30;;
18013;SDS011;9132;47.946;10.394;2023-02-28T01:45:20;4.97;;;3.80;;
18013;SDS011;9132;47.946;10.394;2023-02-28T01:47:47;4.23;;;3.50;;
18013;SDS011;9132;47.946;10.394;2023-02-28T01:50:15;4.53;;;3.90;;
18013;SDS011;9132;47.946;10.394;2023-02-28T01:52:43;4.93;;;3.70;;
18013;SDS011;9132;47.946;10.394;2023-02-28T01:55:11;5.10;;;3.60;;
18013;SDS011;9132;47.946;10.394;2023-02-28T01:57:38;4.00;;;3.60;;
18013;SDS011;9132;47.946;10.394;2023-02-28T02:00:09;5.90;;;4.03;;
18013;SDS011;9132;47.946;10.394;2023-02-28T02:02:38;5.07;;;4.53;;
18013;SDS011;9132;47.946;10.394;2023-02-28T02:05:05;5.80;;;4.10;;
18013;SDS011;9132;47.946;10.394;2023-02-28T02:07:32;5.00;;;3.80;;
18013;SDS011;9132;47.946;10.394;2023-02-28T02:10:01;5.23;;;3.93;;
18013;SDS011;9132;47.946;10.394;2023-02-28T02:12:30;5.33;;;3.90;;
18013;SDS011;9132;47.946;10.394;2023-02-28T02:15:01;5.20;;;4.27;;
18013;SDS011;9132;47.946;10.394;2023-02-28T02:17:31;6.00;;;4.30;;
18013;SDS011;9132;47.946;10.394;2023-02-28T02:22:49;6.57;;;4.00;;
18013;SDS011;9132;47.946;10.394;2023-02-28T02:25:23;6.10;;;4.50;;
18013;SDS011;9132;47.946;10.394;2023-02-28T02:30:42;5.87;;;4.53;;
18013;SDS011;9132;47.946;10.394;2023-02-28T02:35:55;5.17;;;4.30;;
18013;SDS011;9132;47.946;10.394;2023-02-28T02:38:27;6.97;;;4.93;;
18013;SDS011;9132;47.946;10.394;2023-02-28T02:40:56;6.50;;;4.43;;
18013;SDS011;9132;47.946;10.394;2023-02-28T02:43:25;5.40;;;4.83;;
18013;SDS011;9132;47.946;10.394;2023-02-28T02:45:53;7.00;;;4.70;;
18013;SDS011;9132;47.946;10.394;2023-02-28T02:48:21;7.07;;;5.13;;
18013;SDS011;9132;47.946;10.394;2023-02-28T02:50:51;7.13;;;4.63;;
18013;SDS011;9132;47.946;10.394;2023-02-28T02:53:21;5.07;;;4.47;;
18013;SDS011;9132;47.946;10.394;2023-02-28T02:55:49;6.83;;;5.43;;
18013;SDS011;9132;47.946;10.394;2023-02-28T02:58:20;8.53;;;5.20;;
18013;SDS011;9132;47.946;10.394;2023-02-28T03:00:48;6.10;;;4.90;;
18013;SDS011;9132;47.946;10.394;2023-02-28T03:03:16;9.17;;;5.57;;
18013;SDS011;9132;47.946;10.394;2023-02-28T03:05:46;14.67;;;5.97;;
18013;SDS011;9132;47.946;10.394;2023-02-28T03:08:13;7.47;;;5.00;;
18013;SDS011;9132;47.946;10.394;2023-02-28T03:13:19;7.67;;;5.23;;
18013;SDS011;9132;47.946;10.394;2023-02-28T03:15:53;6.57;;;5.13;;
18013;SDS011;9132;47.946;10.394;2023-02-28T03:18:24;7.90;;;4.80;;
18013;SDS011;9132;47.946;10.394;2023-02-28T03:20:56;5.97;;;5.07;;
18013;SDS011;9132;47.946;10.394;2023-02-28T03:23:27;7.77;;;4.77;;
18013;SDS011;9132;47.946;10.394;2023-02-28T03:25:56;5.83;;;4.50;;
18013;SDS011;9132;47.946;10.394;2023-02-28T03:28:27;4.70;;;4.10;;
18013;SDS011;9132;47.946;10.394;2023-02-28T03:30:57;6.53;;;4.77;;
18013;SDS011;9132;47.946;10.394;2023-02-28T03:33:26;7.67;;;5.37;;
18013;SDS011;9132;47.946;10.394;2023-02-28T03:35:55;6.13;;;5.20;;
18013;SDS011;9132;47.946;10.394;2023-02-28T03:38:25;8.07;;;5.47;;
18013;SDS011;9132;47.946;10.394;2023-02-28T03:40:55;6.13;;;5.07;;
18013;SDS011;9132;47.946;10.394;2023-02-28T03:43:35;5.37;;;4.80;;
18013;SDS011;9132;47.946;10.394;2023-02-28T03:46:03;8.40;;;5.03;;
18013;SDS011;9132;47.946;10.394;2023-02-28T03:48:33;5.77;;;4.17;;
18013;SDS011;9132;47.946;10.394;2023-02-28T03:51:01;6.80;;;4.67;;
18013;SDS011;9132;47.946;10.394;2023-02-28T03:53:30;5.70;;;5.10;;
18013;SDS011;9132;47.946;10.394;2023-02-28T03:55:59;5.60;;;4.87;;
18013;SDS011;9132;47.946;10.394;2023-02-28T03:58:29;7.07;;;5.20;;
18013;SDS011;9132;47.946;10.394;2023-02-28T04:00:58;7.30;;;4.67;;
18013;SDS011;9132;47.946;10.394;2023-02-28T04:03:33;6.20;;;4.73;;
18013;SDS011;9132;47.946;10.394;2023-02-28T04:05:59;9.00;;;5.60;;
18013;SDS011;9132;47.946;10.394;2023-02-28T04:08:26;6.23;;;5.20;;
18013;SDS011;9132;47.946;10.394;2023-02-28T04:10:53;5.70;;;5.00;;
18013;SDS011;9132;47.946;10.394;2023-02-28T04:13:21;12.57;;;6.33;;
18013;SDS011;9132;47.946;10.394;2023-02-28T04:15:48;9.07;;;5.37;;
18013;SDS011;9132;47.946;10.394;2023-02-28T04:18:15;6.83;;;4.83;;
18013;SDS011;9132;47.946;10.394;2023-02-28T04:20:41;6.13;;;4.80;;
18013;SDS011;9132;47.946;10.394;2023-02-28T04:23:07;8.37;;;5.70;;
18013;SDS011;9132;47.946;10.394;2023-02-28T04:25:33;5.93;;;4.70;;
18013;SDS011;9132;47.946;10.394;2023-02-28T04:28:00;7.80;;;4.90;;
18013;SDS011;9132;47.946;10.394;2023-02-28T04:30:26;5.43;;;4.60;;
18013;SDS011;9132;47.946;10.394;2023-02-28T04:32:54;6.40;;;4.80;;
18013;SDS011;9132;47.946;10.394;2023-02-28T04:35:20;11.63;;;7.53;;
18013;SDS011;9132;47.946;10.394;2023-02-28T04:37:46;7.53;;;6.43;;
18013;SDS011;9132;47.946;10.394;2023-02-28T04:40:12;7.57;;;5.97;;
18013;SDS011;9132;47.946;10.394;2023-02-28T04:42:39;8.83;;;5.90;;
18013;SDS011;9132;47.946;10.394;2023-02-28T04:45:06;7.23;;;5.50;;
18013;SDS011;9132;47.946;10.394;2023-02-28T04:47:35;7.80;;;5.40;;
18013;SDS011;9132;47.946;10.394;2023-02-28T04:50:03;8.40;;;5.90;;
18013;SDS011;9132;47.946;10.394;2023-02-28T04:52:29;9.40;;;5.87;;
18013;SDS011;9132;47.946;10.394;2023-02-28T04:54:55;7.07;;;6.33;;
18013;SDS011;9132;47.946;10.394;2023-02-28T04:57:22;7.37;;;6.20;;
18013;SDS011;9132;47.946;10.394;2023-02-28T04:59:48;7.27;;;5.70;;
18013;SDS011;9132;47.946;10.394;2023-02-28T05:02:14;7.77;;;6.27;;
18013;SDS011;9132;47.946;10.394;2023-02-28T05:04:41;7.10;;;5.47;;
18013;SDS011;9132;47.946;10.394;2023-02-28T05:07:08;7.53;;;6.00;;
18013;SDS011;9132;47.946;10.394;2023-02-28T05:09:35;8.93;;;6.23;;
18013;SDS011;9132;47.946;10.394;2023-02-28T05:12:01;7.77;;;6.17;;
18013;SDS011;9132;47.946;10.394;2023-02-28T05:14:28;6.97;;;6.27;;
18013;SDS011;9132;47.946;10.394;2023-02-28T05:16:54;8.93;;;7.33;;
18013;SDS011;9132;47.946;10.394;2023-02-28T05:19:20;7.83;;;6.17;;
18013;SDS011;9132;47.946;10.394;2023-02-28T05:21:50;7.37;;;6.43;;
18013;SDS011;9132;47.946;10.394;2023-02-28T05:24:18;7.90;;;6.63;;
18013;SDS011;9132;47.946;10.394;2023-02-28T05:26:48;7.57;;;6.37;;
18013;SDS011;9132;47.946;10.394;2023-02-28T05:29:14;8.57;;;6.50;;
18013;SDS011;9132;47.946;10.394;2023-02-28T05:31:40;8.17;;;6.60;;
18013;SDS011;9132;47.946;10.394;2023-02-28T05:34:07;8.43;;;6.57;;
18013;SDS011;9132;47.946;10.394;2023-02-28T05:36:36;11.57;;;6.23;;
18013;SDS011;9132;47.946;10.394;2023-02-28T05:39:02;8.07;;;6.90;;
18013;SDS011;9132;47.946;10.394;2023-02-28T05:41:30;8.57;;;6.87;;
18013;SDS011;9132;47.946;10.394;2023-02-28T05:43:56;8.37;;;7.10;;
18013;SDS011;9132;47.946;10.394;2023-02-28T05:46:23;17.27;;;10.80;;
18013;SDS011;9132;47.946;10.394;2023-02-28T05:48:49;10.63;;;8.00;;
18013;SDS011;9132;47.946;10.394;2023-02-28T05:51:16;8.80;;;7.27;;
18013;SDS011;9132;47.946;10.394;2023-02-28T05:53:42;8.40;;;6.53;;
18013;SDS011;9132;47.946;10.394;2023-02-28T05:56:08;10.43;;;8.13;;
18013;SDS011;9132;47.946;10.394;2023-02-28T05:58:36;11.43;;;7.27;;
18013;SDS011;9132;47.946;10.394;2023-02-28T06:03:44;9.13;;;7.07;;
18013;SDS011;9132;47.946;10.394;2023-02-28T06:06:10;8.33;;;7.13;;
18013;SDS011;9132;47.946;10.394;2023-02-28T06:08:36;11.23;;;7.30;;
18013;SDS011;9132;47.946;10.394;2023-02-28T06:11:02;11.73;;;7.90;;
18013;SDS011;9132;47.946;10.394;2023-02-28T06:13:29;10.67;;;8.07;;
18013;SDS011;9132;47.946;10.394;2023-02-28T06:15:56;9.00;;;7.67;;
18013;SDS011;9132;47.946;10.394;2023-02-28T06:18:26;9.63;;;7.70;;
18013;SDS011;9132;47.946;10.394;2023-02-28T06:20:52;10.40;;;7.73;;
18013;SDS011;9132;47.946;10.394;2023-02-28T06:23:19;10.73;;;8.20;;
18013;SDS011;9132;47.946;10.394;2023-02-28T06:25:46;10.03;;;8.53;;
18013;SDS011;9132;47.946;10.394;2023-02-28T06:28:12;10.10;;;7.87;;
18013;SDS011;9132;47.946;10.394;2023-02-28T06:30:38;12.27;;;8.27;;
18013;SDS011;9132;47.946;10.394;2023-02-28T06:33:06;11.20;;;8.37;;
18013;SDS011;9132;47.946;10.394;2023-02-28T06:35:32;11.23;;;9.50;;
18013;SDS011;9132;47.946;10.394;2023-02-28T06:37:59;11.30;;;9.10;;
18013;SDS011;9132;47.946;10.394;2023-02-28T06:40:25;12.17;;;8.67;;
18013;SDS011;9132;47.946;10.394;2023-02-28T06:42:51;12.10;;;7.87;;
18013;SDS011;9132;47.946;10.394;2023-02-28T06:45:19;11.50;;;8.17;;
18013;SDS011;9132;47.946;10.394;2023-02-28T06:47:45;10.87;;;8.37;;
18013;SDS011;9132;47.946;10.394;2023-02-28T06:50:18;11.83;;;8.90;;
18013;SDS011;9132;47.946;10.394;2023-02-28T06:52:45;12.67;;;9.07;;
18013;SDS011;9132;47.946;10.394;2023-02-28T06:55:11;12.80;;;9.00;;
18013;SDS011;9132;47.946;10.394;2023-02-28T06:57:38;12.17;;;9.20;;
18013;SDS011;9132;47.946;10.394;2023-02-28T07:00:05;11.40;;;9.13;;
18013;SDS011;9132;47.946;10.394;2023-02-28T07:02:32;12.33;;;9.90;;
18013;SDS011;9132;47.946;10.394;2023-02-28T07:04:58;13.77;;;9.53;;
18013;SDS011;9132;47.946;10.394;2023-02-28T07:07:26;13.13;;;9.30;;
18013;SDS011;9132;47.946;10.394;2023-02-28T07:09:52;12.63;;;9.23;;
18013;SDS011;9132;47.946;10.394;2023-02-28T07:12:19;11.17;;;8.63;;
18013;SDS011;9132;47.946;10.394;2023-02-28T07:14:46;11.70;;;9.07;;
18013;SDS011;9132;47.946;10.394;2023-02-28T07:17:12;13.53;;;9.70;;
18013;SDS011;9132;47.946;10.394;2023-02-28T07:19:38;14.83;;;10.37;;
18013;SDS011;9132;47.946;10.394;2023-02-28T07:22:05;12.80;;;9.60;;
18013;SDS011;9132;47.946;10.394;2023-02-28T07:24:33;12.77;;;9.70;;
18013;SDS011;9132;47.946;10.394;2023-02-28T07:26:59;12.13;;;9.60;;
18013;SDS011;9132;47.946;10.394;2023-02-28T07:29:25;11.07;;;8.80;;
18013;SDS011;9132;47.946;10.394;2023-02-28T07:31:52;13.13;;;9.97;;
18013;SDS011;9132;47.946;10.394;2023-02-28T07:34:18;14.03;;;9.80;;
18013;SDS011;9132;47.946;10.394;2023-02-28T07:36:45;14.53;;;10.47;;
18013;SDS011;9132;47.946;10.394;2023-02-28T07:39:11;14.00;;;10.50;;
18013;SDS011;9132;47.946;10.394;2023-02-28T07:41:39;13.00;;;10.10;;
18013;SDS011;9132;47.946;10.394;2023-02-28T07:44:08;14.97;;;10.73;;
18013;SDS011;9132;47.946;10.394;2023-02-28T07:46:34;12.00;;;9.43;;
18013;SDS011;9132;47.946;10.394;2023-02-28T07:49:01;13.33;;;10.17;;
18013;SDS011;9132;47.946;10.394;2023-02-28T07:51:28;13.67;;;9.37;;
18013;SDS011;9132;47.946;10.394;2023-02-28T07:53:54;13.20;;;10.00;;
18013;SDS011;9132;47.946;10.394;2023-02-28T07:56:20;12.70;;;10.17;;
18013;SDS011;9132;47.946;10.394;2023-02-28T07:58:48;15.97;;;10.30;;
18013;SDS011;9132;47.946;10.394;2023-02-28T08:01:14;13.57;;;10.70;;
18013;SDS011;9132;47.946;10.394;2023-02-28T08:03:42;16.33;;;11.17;;
18013;SDS011;9132;47.946;10.394;2023-02-28T08:06:14;14.93;;;10.47;;
18013;SDS011;9132;47.946;10.394;2023-02-28T08:08:41;13.60;;;10.70;;
18013;SDS011;9132;47.946;10.394;2023-02-28T08:11:07;14.50;;;10.90;;
18013;SDS011;9132;47.946;10.394;2023-02-28T08:13:34;15.60;;;10.50;;
18013;SDS011;9132;47.946;10.394;2023-02-28T08:16:02;13.53;;;10.17;;
18013;SDS011;9132;47.946;10.394;2023-02-28T08:18:28;13.80;;;10.17;;
18013;SDS011;9132;47.946;10.394;2023-02-28T08:20:55;13.30;;;9.60;;
18013;SDS011;9132;47.946;10.394;2023-02-28T08:23:21;18.00;;;10.97;;
18013;SDS011;9132;47.946;10.394;2023-02-28T08:25:52;14.07;;;10.97;;
18013;SDS011;9132;47.946;10.394;2023-02-28T08:28:19;12.80;;;9.80;;
18013;SDS011;9132;47.946;10.394;2023-02-28T08:30:45;14.83;;;10.40;;
18013;SDS011;9132;47.946;10.394;2023-02-28T08:33:13;15.03;;;11.17;;
18013;SDS011;9132;47.946;10.394;2023-02-28T08:35:39;13.73;;;10.70;;
18013;SDS011;9132;47.946;10.394;2023-02-28T08:38:05;16.33;;;10.33;;
18013;SDS011;9132;47.946;10.394;2023-02-28T08:40:31;15.10;;;10.57;;
18013;SDS011;9132;47.946;10.394;2023-02-28T08:42:58;13.90;;;11.03;;
18013;SDS011;9132;47.946;10.394;2023-02-28T08:45:24;14.10;;;10.10;;
18013;SDS011;9132;47.946;10.394;2023-02-28T08:47:51;14.40;;;11.27;;
18013;SDS011;9132;47.946;10.394;2023-02-28T08:50:18;15.47;;;10.60;;
18013;SDS011;9132;47.946;10.394;2023-02-28T08:52:45;14.53;;;10.37;;
18013;SDS011;9132;47.946;10.394;2023-02-28T08:55:11;14.00;;;9.97;;
18013;SDS011;9132;47.946;10.394;2023-02-28T08:57:37;12.50;;;9.53;;
18013;SDS011;9132;47.946;10.394;2023-02-28T09:00:04;13.40;;;10.47;;
18013;SDS011;9132;47.946;10.394;2023-02-28T09:02:30;11.73;;;9.27;;
18013;SDS011;9132;47.946;10.394;2023-02-28T09:04:57;11.33;;;9.37;;
18013;SDS011;9132;47.946;10.394;2023-02-28T09:07:25;14.30;;;10.30;;
18013;SDS011;9132;47.946;10.394;2023-02-28T09:09:51;13.80;;;9.77;;
18013;SDS011;9132;47.946;10.394;2023-02-28T09:12:21;14.17;;;10.20;;
18013;SDS011;9132;47.946;10.394;2023-02-28T09:14:47;14.40;;;10.77;;
18013;SDS011;9132;47.946;10.394;2023-02-28T09:17:13;14.53;;;10.17;;
18013;SDS011;9132;47.946;10.394;2023-02-28T09:19:40;14.57;;;10.40;;
18013;SDS011;9132;47.946;10.394;2023-02-28T09:22:06;14.77;;;10.57;;
18013;SDS011;9132;47.946;10.394;2023-02-28T09:24:34;12.87;;;9.80;;
18013;SDS011;9132;47.946;10.394;2023-02-28T09:27:01;12.80;;;9.83;;
18013;SDS011;9132;47.946;10.394;2023-02-28T09:29:27;13.57;;;10.17;;
18013;SDS011;9132;47.946;10.394;2023-02-28T09:31:53;15.43;;;10.73;;
18013;SDS011;9132;47.946;10.394;2023-02-28T09:34:21;13.70;;;10.23;;
18013;SDS011;9132;47.946;10.394;2023-02-28T09:36:47;10.63;;;9.53;;
18013;SDS011;9132;47.946;10.394;2023-02-28T09:39:13;13.53;;;10.17;;
18013;SDS011;9132;47.946;10.394;2023-02-28T09:41:42;13.90;;;10.60;;
18013;SDS011;9132;47.946;10.394;2023-02-28T09:44:15;12.40;;;8.90;;
18013;SDS011;9132;47.946;10.394;2023-02-28T09:46:44;14.37;;;10.67;;
18013;SDS011;9132;47.946;10.394;2023-02-28T09:49:11;13.07;;;10.17;;
18013;SDS011;9132;47.946;10.394;2023-02-28T09:51:44;12.90;;;9.60;;
18013;SDS011;9132;47.946;10.394;2023-02-28T09:54:13;13.67;;;10.50;;
18013;SDS011;9132;47.946;10.394;2023-02-28T09:56:45;13.50;;;10.33;;
18013;SDS011;9132;47.946;10.394;2023-02-28T09:59:19;13.17;;;10.40;;
18013;SDS011;9132;47.946;10.394;2023-02-28T10:01:50;13.00;;;10.17;;
18013;SDS011;9132;47.946;10.394;2023-02-28T10:04:24;13.00;;;10.07;;
18013;SDS011;9132;47.946;10.394;2023-02-28T10:06:54;14.80;;;11.10;;
18013;SDS011;9132;47.946;10.394;2023-02-28T10:09:23;14.50;;;10.93;;
18013;SDS011;9132;47.946;10.394;2023-02-28T10:11:52;15.53;;;11.77;;
18013;SDS011;9132;47.946;10.394;2023-02-28T10:14:21;15.37;;;11.70;;
18013;SDS011;9132;47.946;10.394;2023-02-28T10:16:47;14.90;;;11.30;;
18013;SDS011;9132;47.946;10.394;2023-02-28T10:19:18;14.23;;;10.20;;
18013;SDS011;9132;47.946;10.394;2023-02-28T10:21:47;14.27;;;10.53;;
18013;SDS011;9132;47.946;10.394;2023-02-28T10:24:19;13.13;;;9.83;;
18013;SDS011;9132;47.946;10.394;2023-02-28T10:26:46;12.63;;;10.47;;
18013;SDS011;9132;47.946;10.394;2023-02-28T10:29:14;13.27;;;10.17;;
18013;SDS011;9132;47.946;10.394;2023-02-28T10:31:41;13.67;;;10.40;;
18013;SDS011;9132;47.946;10.394;2023-02-28T10:34:07;11.50;;;10.20;;
18013;SDS011;9132;47.946;10.394;2023-02-28T10:36:33;15.60;;;11.03;;
18013;SDS011;9132;47.946;10.394;2023-02-28T10:39:00;11.30;;;10.00;;
18013;SDS011;9132;47.946;10.394;2023-02-28T10:41:27;12.50;;;10.03;;
18013;SDS011;9132;47.946;10.394;2023-02-28T10:43:53;12.93;;;11.00;;
18013;SDS011;9132;47.946;10.394;2023-02-28T10:46:35;13.53;;;10.97;;
18013;SDS011;9132;47.946;10.394;2023-02-28T10:49:03;13.87;;;10.93;;
18013;SDS011;9132;47.946;10.394;2023-02-28T10:51:34;12.83;;;10.80;;
18013;SDS011;9132;47.946;10.394;2023-02-28T10:54:02;14.80;;;11.43;;
18013;SDS011;9132;47.946;10.394;2023-02-28T10:56:28;13.00;;;10.57;;
18013;SDS011;9132;47.946;10.394;2023-02-28T10:58:56;12.70;;;10.33;;
18013;SDS011;9132;47.946;10.394;2023-02-28T11:01:23;13.43;;;10.70;;
18013;SDS011;9132;47.946;10.394;2023-02-28T11:03:52;13.80;;;10.80;;
18013;SDS011;9132;47.946;10.394;2023-02-28T11:06:19;17.90;;;12.00;;
18013;SDS011;9132;47.946;10.394;2023-02-28T11:08:47;14.57;;;10.30;;
18013;SDS011;9132;47.946;10.394;2023-02-28T11:11:13;13.53;;;10.90;;
18013;SDS011;9132;47.946;10.394;2023-02-28T11:13:42;14.67;;;11.30;;
18013;SDS011;9132;47.946;10.394;2023-02-28T11:16:10;14.43;;;10.50;;
18013;SDS011;9132;47.946;10.394;2023-02-28T11:18:39;15.43;;;10.87;;
18013;SDS011;9132;47.946;10.394;2023-02-28T11:21:07;14.20;;;11.27;;
18013;SDS011;9132;47.946;10.394;2023-02-28T11:23:35;15.57;;;11.17;;
18013;SDS011;9132;47.946;10.394;2023-02-28T11:26:03;16.03;;;11.03;;
18013;SDS011;9132;47.946;10.394;2023-02-28T11:28:35;13.33;;;10.33;;
18013;SDS011;9132;47.946;10.394;2023-02-28T11:31:04;14.17;;;11.07;;
18013;SDS011;9132;47.946;10.394;2023-02-28T11:33:31;12.53;;;10.03;;
18013;SDS011;9132;47.946;10.394;2023-02-28T11:35:59;12.63;;;10.57;;
18013;SDS011;9132;47.946;10.394;2023-02-28T11:38:28;16.43;;;12.87;;
18013;SDS011;9132;47.946;10.394;2023-02-28T11:43:42;22.80;;;16.93;;
18013;SDS011;9132;47.946;10.394;2023-02-28T11:46:15;16.03;;;13.10;;
18013;SDS011;9132;47.946;10.394;2023-02-28T11:48:49;13.87;;;11.50;;
18013;SDS011;9132;47.946;10.394;2023-02-28T11:51:20;14.07;;;11.70;;
18013;SDS011;9132;47.946;10.394;2023-02-28T11:53:55;14.77;;;11.67;;
18013;SDS011;9132;47.946;10.394;2023-02-28T11:56:25;14.10;;;10.70;;
18013;SDS011;9132;47.946;10.394;2023-02-28T11:58:59;15.60;;;11.80;;
18013;SDS011;9132;47.946;10.394;2023-02-28T12:01:33;12.97;;;10.83;;
18013;SDS011;9132;47.946;10.394;2023-02-28T12:04:11;12.43;;;10.57;;
18013;SDS011;9132;47.946;10.394;2023-02-28T12:06:40;14.93;;;10.87;;
18013;SDS011;9132;47.946;10.394;2023-02-28T12:09:27;12.73;;;10.77;;
18013;SDS011;9132;47.946;10.394;2023-02-28T12:11:56;16.13;;;11.10;;
18013;SDS011;9132;47.946;10.394;2023-02-28T12:14:30;14.50;;;11.73;;
18013;SDS011;9132;47.946;10.394;2023-02-28T12:17:03;15.13;;;10.90;;
18013;SDS011;9132;47.946;10.394;2023-02-28T12:19:34;13.13;;;10.73;;
18013;SDS011;9132;47.946;10.394;2023-02-28T12:22:09;15.67;;;11.53;;
18013;SDS011;9132;47.946;10.394;2023-02-28T12:24:54;12.93;;;10.93;;
18013;SDS011;9132;47.946;10.394;2023-02-28T12:27:25;13.50;;;11.07;;
18013;SDS011;9132;47.946;10.394;2023-02-28T12:29:54;14.00;;;11.00;;
18013;SDS011;9132;47.946;10.394;2023-02-28T12:32:23;13.17;;;11.10;;
18013;SDS011;9132;47.946;10.394;2023-02-28T12:34:52;14.53;;;11.37;;
18013;SDS011;9132;47.946;10.394;2023-02-28T12:37:20;15.50;;;11.47;;
18013;SDS011;9132;47.946;10.394;2023-02-28T12:39:49;13.37;;;11.23;;
18013;SDS011;9132;47.946;10.394;2023-02-28T12:42:22;17.23;;;12.37;;
18013;SDS011;9132;47.946;10.394;2023-02-28T12:44:51;14.30;;;11.73;;
18013;SDS011;9132;47.946;10.394;2023-02-28T12:47:18;14.57;;;12.37;;
18013;SDS011;9132;47.946;10.394;2023-02-28T12:49:45;14.73;;;11.67;;
18013;SDS011;9132;47.946;10.394;2023-02-28T12:52:12;12.60;;;10.67;;
18013;SDS011;9132;47.946;10.394;2023-02-28T12:54:43;12.47;;;11.17;;
18013;SDS011;9132;47.946;10.394;2023-02-28T12:57:12;15.03;;;11.00;;
18013;SDS011;9132;47.946;10.394;2023-02-28T12:59:41;15.70;;;12.37;;
18013;SDS011;9132;47.946;10.394;2023-02-28T13:02:21;13.90;;;11.00;;
18013;SDS011;9132;47.946;10.394;2023-02-28T13:04:56;14.40;;;11.67;;
18013;SDS011;9132;47.946;10.394;2023-02-28T13:10:11;19.70;;;12.57;;
18013;SDS011;9132;47.946;10.394;2023-02-28T13:12:45;15.73;;;12.20;;
18013;SDS011;9132;47.946;10.394;2023-02-28T13:15:17;15.30;;;12.80;;
18013;SDS011;9132;47.946;10.394;2023-02-28T13:17:47;15.43;;;12.03;;
18013;SDS011;9132;47.946;10.394;2023-02-28T13:20:15;17.23;;;12.57;;
18013;SDS011;9132;47.946;10.394;2023-02-28T13:22:42;14.77;;;12.70;;
18013;SDS011;9132;47.946;10.394;2023-02-28T13:28:08;13.33;;;11.53;;
18013;SDS011;9132;47.946;10.394;2023-02-28T13:33:23;17.97;;;13.67;;
18013;SDS011;9132;47.946;10.394;2023-02-28T13:36:00;19.07;;;14.23;;
18013;SDS011;9132;47.946;10.394;2023-02-28T13:38:39;16.63;;;12.37;;
18013;SDS011;9132;47.946;10.394;2023-02-28T13:44:00;15.13;;;11.77;;
18013;SDS011;9132;47.946;10.394;2023-02-28T13:46:27;15.03;;;12.00;;
18013;SDS011;9132;47.946;10.394;2023-02-28T13:48:55;16.93;;;12.67;;
18013;SDS011;9132;47.946;10.394;2023-02-28T13:51:47;14.63;;;12.13;;
18013;SDS011;9132;47.946;10.394;2023-02-28T13:54:16;15.97;;;10.93;;
18013;SDS011;9132;47.946;10.394;2023-02-28T13:56:45;16.77;;;12.27;;
18013;SDS011;9132;47.946;10.394;2023-02-28T13:59:16;14.53;;;12.10;;
18013;SDS011;9132;47.946;10.394;2023-02-28T14:01:49;14.63;;;12.00;;
18013;SDS011;9132;47.946;10.394;2023-02-28T14:04:29;20.23;;;13.30;;
18013;SDS011;9132;47.946;10.394;2023-02-28T14:07:01;16.53;;;11.97;;
18013;SDS011;9132;47.946;10.394;2023-02-28T14:09:29;13.90;;;11.73;;
18013;SDS011;9132;47.946;10.394;2023-02-28T14:11:56;15.70;;;11.90;;
18013;SDS011;9132;47.946;10.394;2023-02-28T14:17:08;15.57;;;11.63;;
18013;SDS011;9132;47.946;10.394;2023-02-28T14:19:39;14.00;;;10.87;;
18013;SDS011;9132;47.946;10.394;2023-02-28T14:22:09;14.93;;;12.07;;
18013;SDS011;9132;47.946;10.394;2023-02-28T14:24:47;15.77;;;11.50;;
18013;SDS011;9132;47.946;10.394;2023-02-28T14:27:28;14.77;;;12.23;;
18013;SDS011;9132;47.946;10.394;2023-02-28T14:30:12;14.63;;;11.07;;
18013;SDS011;9132;47.946;10.394;2023-02-28T14:32:41;15.70;;;11.70;;
18013;SDS011;9132;47.946;10.394;2023-02-28T14:35:20;13.23;;;11.80;;
18013;SDS011;9132;47.946;10.394;2023-02-28T14:37:50;17.60;;;11.63;;
18013;SDS011;9132;47.946;10.394;2023-02-28T14:40:17;15.60;;;11.90;;
18013;SDS011;9132;47.946;10.394;2023-02-28T14:42:46;15.67;;;12.03;;
18013;SDS011;9132;47.946;10.394;2023-02-28T14:45:17;15.07;;;11.77;;
18013;SDS011;9132;47.946;10.394;2023-02-28T14:47:44;19.63;;;11.53;;
18013;SDS011;9132;47.946;10.394;2023-02-28T14:50:18;14.57;;;11.70;;
18013;SDS011;9132;47.946;10.394;2023-02-28T14:52:45;17.70;;;12.00;;
18013;SDS011;9132;47.946;10.394;2023-02-28T14:55:12;14.07;;;11.70;;
18013;SDS011;9132;47.946;10.394;2023-02-28T14:57:41;13.97;;;11.47;;
18013;SDS011;9132;47.946;10.394;2023-02-28T15:00:12;13.50;;;10.87;;
18013;SDS011;9132;47.946;10.394;2023-02-28T15:02:39;13.67;;;11.30;;
18013;SDS011;9132;47.946;10.394;2023-02-28T15:10:42;14.60;;;11.53;;
18013;SDS011;9132;47.946;10.394;2023-02-28T15:13:11;14.20;;;11.67;;
18013;SDS011;9132;47.946;10.394;2023-02-28T15:15:42;12.93;;;10.83;;